createdAt,value
2022-10-23T00:01:38.200Z,37.83
2022-10-23T00:04:12.143Z,36.78
2022-10-23T00:06:38.911Z,41.10
2022-10-23T00:09:07.170Z,45.38
2022-10-23T00:11:34.880Z,44.50
2022-10-23T00:14:04.066Z,44.72
2022-10-23T00:16:31.220Z,41.95
2022-10-23T00:18:57.939Z,44.20
2022-10-23T00:21:25.262Z,44.85
2022-10-23T00:23:52.326Z,43.03
2022-10-23T00:26:19.772Z,43.58
2022-10-23T00:28:49.705Z,40.20
2022-10-23T00:31:16.665Z,37.03
2022-10-23T00:33:44.053Z,44.90
2022-10-23T00:36:13.303Z,42.35
2022-10-23T00:38:40.137Z,44.28
2022-10-23T00:41:09.174Z,44.33
2022-10-23T00:43:55.931Z,43.50
2022-10-23T00:46:22.542Z,45.38
2022-10-23T00:48:49.190Z,45.40
2022-10-23T00:51:15.840Z,41.38
2022-10-23T00:53:43.764Z,49.53
2022-10-23T00:56:10.917Z,44.75
2022-10-23T00:58:37.532Z,42.42
2022-10-23T01:01:17.217Z,48.83
2022-10-23T01:03:44.056Z,48.67
2022-10-23T01:06:18.961Z,45.20
2022-10-23T01:08:55.797Z,50.10
2022-10-23T01:11:29.258Z,49.85
2022-10-23T01:13:58.904Z,49.67
2022-10-23T01:16:40.915Z,54.85
2022-10-23T01:19:21.504Z,46.42
2022-10-23T01:22:13.466Z,45.47
2022-10-23T01:24:55.895Z,42.78
2022-10-23T01:27:24.633Z,51.92
2022-10-23T01:30:06.699Z,45.05
2022-10-23T01:32:44.656Z,51.22
2022-10-23T01:35:35.004Z,49.47
2022-10-23T01:38:15.278Z,49.20
2022-10-23T01:40:47.731Z,48.40
2022-10-23T01:43:26.505Z,48.72
2022-10-23T01:46:04.552Z,49.38
2022-10-23T01:48:32.144Z,49.60
2022-10-23T01:51:04.895Z,54.90
2022-10-23T01:53:35.205Z,51.22
2022-10-23T01:56:03.777Z,47.17
2022-10-23T01:58:31.624Z,60.65
2022-10-23T02:01:01.455Z,59.70
2022-10-23T02:03:29.531Z,51.67
2022-10-23T02:05:56.174Z,54.08
2022-10-23T02:08:22.888Z,56.95
2022-10-23T02:11:09.494Z,56.75
2022-10-23T02:13:52.702Z,57.30
2022-10-23T02:16:52.505Z,62.22
2022-10-23T02:19:43.026Z,56.83
2022-10-23T02:22:19.315Z,56.22
2022-10-23T02:24:51.102Z,88.97
2022-10-23T02:27:22.171Z,70.18
2022-10-23T02:29:52.589Z,62.40
2022-10-23T02:32:20.788Z,131.18
2022-10-23T02:34:48.077Z,183.18
2022-10-23T02:37:15.320Z,67.50
2022-10-23T02:39:42.174Z,188.90
2022-10-23T02:42:27.074Z,67.32
2022-10-23T02:45:05.855Z,151.10
2022-10-23T02:48:04.957Z,78.18
2022-10-23T02:50:43.574Z,99.10
2022-10-23T02:53:24.114Z,78.82
2022-10-23T02:56:11.031Z,73.20
2022-10-23T02:58:45.084Z,78.60
2022-10-23T03:01:17.777Z,79.22
2022-10-23T03:03:56.816Z,123.60
2022-10-23T03:06:24.166Z,81.47
2022-10-23T03:09:10.092Z,81.57
2022-10-23T03:11:36.927Z,86.38
2022-10-23T03:14:03.554Z,110.00
2022-10-23T03:16:30.197Z,89.10
2022-10-23T03:18:56.809Z,76.07
2022-10-23T03:21:23.510Z,97.25
2022-10-23T03:23:50.155Z,111.70
2022-10-23T03:26:16.788Z,87.63
2022-10-23T03:28:43.493Z,107.75
2022-10-23T03:31:10.163Z,85.75
2022-10-23T03:33:36.875Z,146.20
2022-10-23T03:36:03.807Z,128.77
2022-10-23T03:38:30.411Z,84.30
2022-10-23T03:40:57.063Z,116.43
2022-10-23T03:43:23.696Z,92.85
2022-10-23T03:45:52.045Z,79.45
2022-10-23T03:48:18.699Z,81.63
2022-10-23T03:50:45.367Z,85.18
2022-10-23T03:53:12.082Z,119.60
2022-10-23T03:55:38.754Z,96.60
2022-10-23T03:58:05.461Z,131.60
2022-10-23T04:00:32.158Z,100.70
2022-10-23T04:02:58.819Z,166.82
2022-10-23T04:05:25.418Z,111.65
2022-10-23T04:07:52.052Z,92.70
2022-10-23T04:10:18.826Z,94.53
2022-10-23T04:12:45.675Z,104.93
2022-10-23T04:15:12.407Z,96.28
2022-10-23T04:17:39.002Z,89.35
2022-10-23T04:20:05.826Z,92.70
2022-10-23T04:22:32.389Z,105.03
2022-10-23T04:24:58.978Z,95.05
2022-10-23T04:27:25.653Z,413.83
2022-10-23T04:29:54.377Z,91.95
2022-10-23T04:32:23.494Z,100.18
2022-10-23T04:34:50.078Z,193.00
2022-10-23T04:37:17.164Z,308.73
2022-10-23T04:39:43.829Z,168.95
2022-10-23T04:42:10.486Z,277.95
2022-10-23T04:44:37.093Z,187.13
2022-10-23T04:47:03.815Z,181.63
2022-10-23T04:49:30.483Z,187.57
2022-10-23T04:51:57.104Z,155.85
2022-10-23T04:54:23.798Z,247.90
2022-10-23T04:56:50.470Z,196.73
2022-10-23T04:59:17.117Z,90.57
2022-10-23T05:01:43.812Z,177.20
2022-10-23T05:04:10.501Z,99.75
2022-10-23T05:06:37.169Z,121.00
2022-10-23T05:09:04.156Z,80.25
2022-10-23T05:11:30.799Z,107.90
2022-10-23T05:13:57.454Z,84.63
2022-10-23T05:16:32.078Z,79.38
2022-10-23T05:18:59.916Z,126.63
2022-10-23T05:21:29.363Z,142.68
2022-10-23T05:23:56.099Z,102.72
2022-10-23T05:26:22.852Z,72.93
2022-10-23T05:28:49.651Z,78.93
2022-10-23T05:31:16.503Z,77.75
2022-10-23T05:33:43.483Z,305.05
2022-10-23T05:36:11.899Z,73.95
2022-10-23T05:38:38.574Z,75.30
2022-10-23T05:41:06.021Z,82.55
2022-10-23T05:43:32.683Z,89.18
2022-10-23T05:45:59.538Z,69.28
2022-10-23T05:48:41.116Z,73.53
2022-10-23T05:51:09.891Z,73.93
2022-10-23T05:53:38.902Z,110.55
2022-10-23T05:56:09.139Z,110.18
2022-10-23T05:58:36.035Z,114.50
2022-10-23T06:01:07.734Z,87.63
2022-10-23T06:03:34.938Z,82.20
2022-10-23T06:06:01.553Z,64.85
2022-10-23T06:08:28.178Z,57.72
2022-10-23T06:10:54.802Z,65.10
2022-10-23T06:13:21.446Z,67.28
2022-10-23T06:15:48.138Z,57.20
2022-10-23T06:18:14.951Z,58.70
2022-10-23T06:20:41.612Z,64.28
2022-10-23T06:23:08.657Z,68.40
2022-10-23T06:25:35.309Z,88.25
2022-10-23T06:28:01.939Z,60.72
2022-10-23T06:30:28.629Z,79.88
2022-10-23T06:32:55.438Z,129.98
2022-10-23T06:35:22.045Z,183.50
2022-10-23T06:37:48.671Z,126.40
2022-10-23T06:40:15.413Z,56.42
2022-10-23T06:42:42.237Z,55.97
2022-10-23T06:45:09.125Z,47.35
2022-10-23T06:47:35.735Z,59.15
2022-10-23T06:50:02.376Z,57.38
2022-10-23T06:52:47.859Z,49.00
2022-10-23T06:55:15.085Z,53.08
2022-10-23T06:57:42.230Z,53.88
2022-10-23T07:00:09.881Z,55.03
2022-10-23T07:02:36.817Z,46.70
2022-10-23T07:05:04.085Z,54.28
2022-10-23T07:07:30.954Z,51.47
2022-10-23T07:09:57.745Z,55.38
2022-10-23T07:12:24.565Z,52.65
2022-10-23T07:14:51.163Z,63.13
2022-10-23T07:17:17.850Z,53.13
2022-10-23T07:19:44.557Z,55.42
2022-10-23T07:22:13.449Z,65.93
2022-10-23T07:24:42.653Z,54.17
2022-10-23T07:27:09.945Z,72.13
2022-10-23T07:29:37.105Z,56.95
2022-10-23T07:32:04.616Z,65.03
2022-10-23T07:34:32.232Z,89.97
2022-10-23T07:36:58.944Z,63.40
2022-10-23T07:39:25.756Z,59.75
2022-10-23T07:41:52.526Z,74.80
2022-10-23T07:44:21.059Z,71.40
2022-10-23T07:46:50.017Z,67.80
2022-10-23T07:49:16.661Z,62.15
2022-10-23T07:51:46.414Z,66.20
2022-10-23T07:54:15.537Z,71.18
2022-10-23T07:56:42.244Z,79.45
2022-10-23T07:59:12.353Z,82.25
2022-10-23T08:01:39.265Z,68.40
2022-10-23T08:04:06.263Z,83.07
2022-10-23T08:06:35.353Z,78.72
2022-10-23T08:09:05.441Z,73.72
2022-10-23T08:11:35.774Z,73.45
2022-10-23T08:14:04.748Z,81.20
2022-10-23T08:16:34.411Z,78.68
2022-10-23T08:19:01.437Z,88.22
2022-10-23T08:21:28.221Z,92.53
2022-10-23T08:23:56.309Z,87.45
2022-10-23T08:26:24.673Z,78.03
2022-10-23T08:28:52.287Z,79.93
2022-10-23T08:31:20.934Z,80.80
2022-10-23T08:36:25.437Z,81.07
2022-10-23T08:38:56.046Z,94.85
2022-10-23T08:41:27.898Z,76.18
2022-10-23T08:44:24.244Z,82.65
2022-10-23T08:47:13.163Z,80.18
2022-10-23T08:49:41.613Z,84.47
2022-10-23T08:52:24.413Z,88.60
2022-10-23T08:54:57.256Z,78.63
2022-10-23T08:57:24.753Z,73.60
2022-10-23T09:00:05.455Z,71.32
2022-10-23T09:02:41.606Z,65.28
2022-10-23T09:05:48.234Z,62.38
2022-10-23T09:08:39.446Z,55.60
2022-10-23T09:11:11.149Z,66.45
2022-10-23T09:13:40.710Z,60.15
2022-10-23T09:16:28.790Z,65.95
2022-10-23T09:18:55.915Z,60.65
2022-10-23T09:21:29.048Z,57.85
2022-10-23T09:23:56.487Z,54.92
2022-10-23T09:26:23.665Z,58.10
2022-10-23T09:28:55.278Z,50.05
2022-10-23T09:31:21.963Z,51.92
2022-10-23T09:33:57.125Z,58.80
2022-10-23T09:36:29.260Z,60.78
2022-10-23T09:39:01.757Z,54.38
2022-10-23T09:41:30.069Z,41.30
2022-10-23T09:44:08.899Z,47.50
2022-10-23T09:46:46.726Z,44.38
2022-10-23T09:49:22.595Z,42.90
2022-10-23T09:51:56.418Z,42.30
2022-10-23T09:54:26.355Z,41.55
2022-10-23T09:56:54.604Z,40.90
2022-10-23T09:59:25.706Z,35.33
2022-10-23T10:01:58.490Z,38.80
2022-10-23T10:04:51.554Z,35.83
2022-10-23T10:07:24.311Z,36.90
2022-10-23T10:09:52.798Z,35.53
2022-10-23T10:12:28.467Z,34.65
2022-10-23T10:15:17.086Z,35.30
2022-10-23T10:17:56.113Z,37.13
2022-10-23T10:20:44.185Z,38.13
2022-10-23T10:23:28.687Z,35.28
2022-10-23T10:26:05.036Z,33.00
2022-10-23T10:28:44.834Z,36.13
2022-10-23T10:31:43.166Z,33.42
2022-10-23T10:34:12.831Z,33.20
2022-10-23T10:37:07.899Z,40.72
2022-10-23T10:39:42.497Z,33.47
2022-10-23T10:42:55.602Z,31.70
2022-10-23T10:45:38.119Z,34.95
2022-10-23T10:48:48.871Z,33.40
2022-10-23T10:51:30.302Z,28.48
2022-10-23T10:54:11.834Z,29.30
2022-10-23T10:56:40.097Z,27.83
2022-10-23T10:59:12.727Z,34.70
2022-10-23T11:01:47.735Z,29.40
2022-10-23T11:04:41.252Z,34.15
2022-10-23T11:07:12.168Z,40.22
2022-10-23T11:09:39.551Z,31.58
2022-10-23T11:12:06.401Z,30.50
2022-10-23T11:14:34.110Z,29.25
2022-10-23T11:17:05.320Z,27.42
2022-10-23T11:19:41.264Z,31.45
2022-10-23T11:22:30.261Z,28.63
2022-10-23T11:25:19.021Z,21.33
2022-10-23T11:28:13.299Z,19.05
2022-10-23T11:30:49.112Z,22.58
2022-10-23T11:33:34.212Z,20.55
2022-10-23T11:36:07.128Z,19.20
2022-10-23T11:38:35.413Z,23.38
2022-10-23T11:41:07.454Z,17.65
2022-10-23T11:43:53.242Z,18.98
2022-10-23T11:46:23.057Z,17.83
2022-10-23T11:48:49.995Z,18.67
2022-10-23T11:51:35.878Z,21.50
2022-10-23T11:54:28.735Z,18.40
2022-10-23T11:57:10.248Z,20.33
2022-10-23T11:59:43.112Z,16.48
2022-10-23T12:02:33.732Z,17.73
2022-10-23T12:05:07.595Z,15.93
2022-10-23T12:07:38.660Z,17.05
2022-10-23T12:10:07.105Z,12.40
2022-10-23T12:12:34.698Z,12.23
2022-10-23T12:15:22.172Z,11.50
2022-10-23T12:17:50.407Z,14.18
2022-10-23T12:20:21.616Z,8.45
2022-10-23T12:23:13.069Z,6.22
2022-10-23T12:25:39.678Z,6.57
2022-10-23T12:28:06.242Z,7.43
2022-10-23T12:33:52.809Z,7.70
2022-10-23T12:36:48.073Z,7.63
2022-10-23T12:39:28.853Z,6.82
2022-10-23T12:41:55.957Z,8.20
2022-10-23T12:44:24.371Z,7.22
2022-10-23T12:46:57.492Z,5.63
2022-10-23T12:49:26.579Z,4.97
2022-10-23T12:52:04.540Z,7.13
2022-10-23T12:54:32.675Z,6.10
2022-10-23T12:56:59.334Z,9.73
2022-10-23T12:59:52.118Z,9.63
2022-10-23T13:02:23.221Z,6.85
2022-10-23T13:04:51.753Z,8.75
2022-10-23T13:07:27.253Z,7.72
2022-10-23T13:09:54.513Z,7.80
2022-10-23T13:12:32.937Z,11.40
2022-10-23T13:15:14.585Z,28.40
2022-10-23T13:17:42.550Z,10.73
2022-10-23T13:20:18.505Z,8.65
2022-10-23T13:22:47.007Z,6.82
2022-10-23T13:25:27.173Z,6.25
2022-10-23T13:28:09.017Z,7.50
2022-10-23T13:30:42.134Z,7.65
2022-10-23T13:33:20.854Z,6.88
2022-10-23T13:36:23.433Z,4.18
2022-10-23T13:39:10.334Z,6.22
2022-10-23T13:41:40.656Z,6.15
2022-10-23T13:44:07.722Z,5.72
2022-10-23T13:46:34.368Z,5.10
2022-10-23T13:49:00.987Z,7.25
2022-10-23T13:51:29.059Z,4.25
2022-10-23T13:53:56.978Z,6.55
2022-10-23T13:56:25.339Z,6.07
2022-10-23T13:58:52.064Z,5.53
2022-10-23T14:01:29.908Z,4.28
2022-10-23T14:03:58.048Z,6.45
2022-10-23T14:06:25.189Z,7.53
2022-10-23T14:08:52.146Z,5.93
2022-10-23T14:11:20.140Z,7.13
2022-10-23T14:13:48.414Z,5.97
2022-10-23T14:16:17.125Z,8.65
2022-10-23T14:18:44.057Z,8.68
2022-10-23T14:21:15.319Z,7.35
2022-10-23T14:23:41.966Z,7.65
2022-10-23T14:26:11.854Z,7.05
2022-10-23T14:28:38.873Z,8.73
2022-10-23T14:31:06.774Z,7.65
2022-10-23T14:33:33.563Z,7.70
2022-10-23T14:36:00.194Z,7.50
2022-10-23T14:38:27.202Z,12.38
2022-10-23T14:40:53.851Z,6.60
2022-10-23T14:43:20.954Z,12.35
2022-10-23T14:45:47.576Z,8.02
2022-10-23T14:48:14.256Z,7.90
2022-10-23T14:50:46.786Z,9.52
2022-10-23T14:53:14.165Z,8.07
2022-10-23T14:55:40.807Z,7.35
2022-10-23T14:58:08.037Z,9.75
2022-10-23T15:00:34.666Z,7.97
2022-10-23T15:03:01.289Z,6.53
2022-10-23T15:05:27.940Z,7.68
2022-10-23T15:07:55.970Z,8.40
2022-10-23T15:10:22.613Z,9.63
2022-10-23T15:12:49.371Z,9.30
2022-10-23T15:15:16.019Z,8.10
2022-10-23T15:17:42.632Z,11.93
2022-10-23T15:20:09.880Z,11.15
2022-10-23T15:22:36.484Z,8.38
2022-10-23T15:25:03.214Z,8.38
2022-10-23T15:27:29.838Z,7.88
2022-10-23T15:29:56.503Z,11.05
2022-10-23T15:32:23.320Z,9.63
2022-10-23T15:34:50.362Z,7.82
2022-10-23T15:37:16.962Z,10.55
2022-10-23T15:39:44.388Z,8.38
2022-10-23T15:42:11.603Z,9.57
2022-10-23T15:44:39.750Z,9.60
2022-10-23T15:47:06.439Z,11.55
2022-10-23T15:49:33.359Z,10.13
2022-10-23T15:52:00.116Z,9.95
2022-10-23T15:54:29.341Z,11.35
2022-10-23T15:56:58.720Z,12.18
2022-10-23T15:59:25.953Z,15.18
2022-10-23T16:01:52.843Z,13.90
2022-10-23T16:04:20.092Z,24.25
2022-10-23T16:06:47.145Z,12.25
2022-10-23T16:09:14.374Z,14.38
2022-10-23T16:11:42.711Z,12.10
2022-10-23T16:14:13.258Z,15.63
2022-10-23T16:16:39.974Z,11.95
2022-10-23T16:19:06.683Z,14.40
2022-10-23T16:21:35.890Z,10.82
2022-10-23T16:24:04.919Z,12.93
2022-10-23T16:26:31.832Z,12.18
2022-10-23T16:29:01.201Z,14.15
2022-10-23T16:31:28.794Z,14.70
2022-10-23T16:36:29.700Z,14.10
2022-10-23T16:38:56.765Z,12.20
2022-10-23T16:41:23.375Z,13.77
2022-10-23T16:43:50.189Z,13.18
2022-10-23T16:46:19.752Z,13.90
2022-10-23T16:48:46.693Z,10.00
2022-10-23T16:51:15.686Z,11.10
2022-10-23T16:53:43.489Z,10.40
2022-10-23T16:56:11.918Z,11.55
2022-10-23T16:58:41.027Z,12.15
2022-10-23T17:01:10.829Z,16.00
2022-10-23T17:03:39.867Z,12.57
2022-10-23T17:06:11.061Z,13.82
2022-10-23T17:08:38.026Z,12.38
2022-10-23T17:11:04.643Z,10.88
2022-10-23T17:13:31.446Z,11.85
2022-10-23T17:16:10.200Z,11.27
2022-10-23T17:18:39.914Z,10.55
2022-10-23T17:21:11.229Z,12.38
2022-10-23T17:23:37.966Z,12.73
2022-10-23T17:26:14.313Z,11.45
2022-10-23T17:28:42.470Z,12.23
2022-10-23T17:31:33.667Z,11.65
2022-10-23T17:34:04.160Z,10.77
2022-10-23T17:36:33.472Z,12.10
2022-10-23T17:39:00.238Z,11.60
2022-10-23T17:41:27.065Z,11.35
2022-10-23T17:43:58.500Z,11.48
2022-10-23T17:46:26.064Z,14.30
2022-10-23T17:48:53.177Z,11.70
2022-10-23T17:51:22.767Z,16.27
2022-10-23T17:53:51.456Z,11.43
2022-10-23T17:56:25.022Z,11.43
2022-10-23T17:58:59.261Z,10.70
2022-10-23T18:01:27.605Z,14.98
2022-10-23T18:03:55.672Z,8.82
2022-10-23T18:06:28.776Z,13.13
2022-10-23T18:08:57.148Z,10.68
2022-10-23T18:11:26.725Z,9.50
2022-10-23T18:13:54.134Z,9.75
2022-10-23T18:16:21.237Z,10.80
2022-10-23T18:18:48.888Z,12.35
2022-10-23T18:21:17.719Z,14.07
2022-10-23T18:23:44.535Z,11.32
2022-10-23T18:26:22.785Z,12.98
2022-10-23T18:28:51.729Z,9.07
2022-10-23T18:31:19.892Z,11.98
2022-10-23T18:33:47.170Z,11.30
2022-10-23T18:36:16.053Z,10.32
2022-10-23T18:38:43.368Z,10.15
2022-10-23T18:41:10.404Z,9.15
2022-10-23T18:43:44.862Z,11.27
2022-10-23T18:46:14.858Z,9.55
2022-10-23T18:48:42.238Z,9.75
2022-10-23T18:51:23.904Z,9.13
2022-10-23T18:53:50.862Z,9.55
2022-10-23T18:56:23.403Z,8.90
2022-10-23T18:58:55.647Z,10.32
2022-10-23T19:01:23.244Z,9.60
2022-10-23T19:03:50.125Z,9.77
2022-10-23T19:06:18.205Z,11.52
2022-10-23T19:08:45.517Z,8.48
2022-10-23T19:11:13.397Z,11.95
2022-10-23T19:13:40.827Z,11.63
2022-10-23T19:16:12.150Z,11.90
2022-10-23T19:18:40.970Z,9.82
2022-10-23T19:21:07.833Z,9.23
2022-10-23T19:23:36.524Z,11.05
2022-10-23T19:26:09.077Z,9.75
2022-10-23T19:28:38.026Z,10.82
2022-10-23T19:31:05.507Z,11.82
2022-10-23T19:33:32.682Z,9.57
2022-10-23T19:36:01.238Z,9.52
2022-10-23T19:38:31.904Z,11.00
2022-10-23T19:40:58.496Z,9.05
2022-10-23T19:43:25.097Z,14.18
2022-10-23T19:45:51.693Z,9.65
2022-10-23T19:48:18.345Z,9.07
2022-10-23T19:50:45.065Z,10.55
2022-10-23T19:53:11.879Z,11.68
2022-10-23T19:55:38.491Z,12.57
2022-10-23T19:58:05.124Z,9.32
2022-10-23T20:00:31.735Z,11.52
2022-10-23T20:02:58.788Z,11.60
2022-10-23T20:05:26.328Z,8.40
2022-10-23T20:07:53.344Z,10.35
2022-10-23T20:10:20.024Z,10.38
2022-10-23T20:12:56.442Z,8.48
2022-10-23T20:15:29.161Z,10.98
2022-10-23T20:17:55.909Z,10.88
2022-10-23T20:20:22.921Z,10.38
2022-10-23T20:22:54.537Z,12.27
2022-10-23T20:25:22.175Z,9.90
2022-10-23T20:27:48.882Z,8.95
2022-10-23T20:30:15.532Z,9.82
2022-10-23T20:32:42.412Z,10.23
2022-10-23T20:35:09.920Z,11.88
2022-10-23T20:37:36.558Z,11.40
2022-10-23T20:40:03.441Z,10.35
2022-10-23T20:42:30.068Z,11.35
2022-10-23T20:44:56.681Z,11.32
2022-10-23T20:47:23.299Z,12.75
2022-10-23T20:49:49.971Z,11.00
2022-10-23T20:52:16.688Z,9.18
2022-10-23T20:54:43.356Z,9.85
2022-10-23T20:57:10.013Z,13.15
2022-10-23T20:59:36.618Z,18.67
2022-10-23T21:02:03.435Z,9.73
2022-10-23T21:04:30.165Z,9.43
2022-10-23T21:07:09.981Z,11.50
2022-10-23T21:09:38.023Z,12.43
2022-10-23T21:12:06.632Z,9.32
2022-10-23T21:14:33.770Z,11.82
2022-10-23T21:17:00.496Z,10.43
2022-10-23T21:19:27.282Z,14.38
2022-10-23T21:21:54.614Z,11.60
2022-10-23T21:24:21.242Z,14.93
2022-10-23T21:26:48.061Z,11.30
2022-10-23T21:29:19.396Z,11.85
2022-10-23T21:31:54.507Z,15.13
2022-10-23T21:34:21.421Z,12.40
2022-10-23T21:37:11.210Z,14.18
2022-10-23T21:39:34.820Z,11.15
2022-10-23T21:42:01.479Z,10.30
2022-10-23T21:44:28.108Z,13.70
2022-10-23T21:46:55.365Z,14.05
2022-10-23T21:49:21.987Z,15.77
2022-10-23T21:51:48.571Z,11.57
2022-10-23T21:54:15.533Z,12.57
2022-10-23T21:56:48.243Z,15.32
2022-10-23T21:59:17.615Z,12.90
2022-10-23T22:01:45.797Z,11.23
2022-10-23T22:04:17.528Z,12.95
2022-10-23T22:06:44.882Z,14.73
2022-10-23T22:09:16.562Z,12.55
2022-10-23T22:11:43.215Z,16.35
2022-10-23T22:14:09.935Z,17.85
2022-10-23T22:16:36.762Z,17.10
2022-10-23T22:19:03.854Z,15.40
2022-10-23T22:21:30.846Z,12.02
2022-10-23T22:23:59.063Z,11.63
2022-10-23T22:26:27.557Z,13.30
2022-10-23T22:28:55.754Z,14.18
2022-10-23T22:31:25.912Z,14.20
2022-10-23T22:33:53.588Z,14.57
2022-10-23T22:36:20.617Z,13.00
2022-10-23T22:38:47.377Z,11.68
2022-10-23T22:41:14.491Z,13.23
2022-10-23T22:43:41.244Z,12.18
2022-10-23T22:46:13.433Z,10.70
2022-10-23T22:48:40.426Z,13.73
2022-10-23T22:51:09.056Z,17.67
2022-10-23T22:53:36.128Z,13.40
2022-10-23T22:56:06.675Z,12.55
2022-10-23T22:58:33.815Z,13.15
2022-10-23T23:01:11.822Z,15.85
2022-10-23T23:03:38.851Z,14.27
2022-10-23T23:06:07.088Z,12.05
2022-10-23T23:08:34.857Z,12.13
2022-10-23T23:11:01.866Z,13.77
2022-10-23T23:13:28.687Z,16.90
2022-10-23T23:15:55.625Z,12.57
2022-10-23T23:18:22.886Z,13.32
2022-10-23T23:20:49.537Z,15.30
2022-10-23T23:23:16.676Z,13.73
2022-10-23T23:25:47.462Z,12.93
2022-10-23T23:28:15.734Z,15.32
2022-10-23T23:30:43.070Z,13.05
2022-10-23T23:33:10.489Z,11.77
2022-10-23T23:35:45.048Z,12.77
2022-10-23T23:38:12.798Z,13.48
2022-10-23T23:40:40.157Z,13.35
2022-10-23T23:43:07.169Z,14.85
2022-10-23T23:45:34.105Z,15.23
2022-10-23T23:48:00.800Z,10.80
2022-10-23T23:50:28.135Z,12.75
2022-10-23T23:52:54.870Z,10.82
2022-10-23T23:55:21.495Z,9.82
2022-10-23T23:57:48.161Z,14.30
